Time;durP1;ratioP1;P1;durP2;ratioP2;P2;SDS_P1;SDS_P2;PMS_P1;PMS_P2;Temp;Humidity;BMP_temperature;BMP_pressure;BME280_temperature;BME280_humidity;BME280_pressure;Samples;Min_cycle;Max_cycle;Signal;HPM_P1;HPM_P2
2024/03/10 00:01:19;;;;;;;0.30;0.20;;;10.80;99.90;;;;;;5089730;28;20276;-78
2024/03/10 00:03:44;;;;;;;0.40;0.20;;;10.70;99.90;;;;;;5089067;28;20234;-74
2024/03/10 00:06:10;;;;;;;0.30;0.20;;;10.80;99.90;;;;;;5088122;28;20276;-74
2024/03/10 00:08:36;;;;;;;0.40;0.40;;;10.80;99.90;;;;;;5087863;28;20208;-74
2024/03/10 00:11:01;;;;;;;0.30;0.20;;;10.70;99.90;;;;;;5087872;28;20736;-79
2024/03/10 00:13:27;;;;;;;0.30;0.20;;;10.70;99.90;;;;;;5088636;28;20232;-79
2024/03/10 00:15:53;;;;;;;0.30;0.30;;;10.80;99.90;;;;;;5089407;28;20199;-74
2024/03/10 00:18:18;;;;;;;0.30;0.20;;;10.70;99.90;;;;;;5087451;28;20812;-75
2024/03/10 00:20:44;;;;;;;0.83;0.83;;;10.70;99.90;;;;;;5087899;28;20181;-74
2024/03/10 00:23:11;;;;;;;0.30;0.20;;;10.80;99.90;;;;;;5086624;28;20224;-74
2024/03/10 00:25:36;;;;;;;0.30;0.20;;;10.70;99.90;;;;;;5087410;28;20183;-78
2024/03/10 00:28:03;;;;;;;0.40;0.20;;;10.80;99.90;;;;;;5087042;28;20208;-74
2024/03/10 00:30:29;;;;;;;3.10;3.00;;;10.80;99.90;;;;;;5087500;28;20180;-76
2024/03/10 00:32:58;;;;;;;0.30;0.20;;;10.80;99.90;;;;;;5087327;28;20257;-74
2024/03/10 00:35:24;;;;;;;0.30;0.20;;;10.80;99.90;;;;;;5087660;28;20832;-74
2024/03/10 00:37:49;;;;;;;0.40;0.30;;;10.70;99.90;;;;;;5087153;28;20330;-78
2024/03/10 00:40:15;;;;;;;0.30;0.20;;;10.70;99.90;;;;;;5088991;28;20176;-76
2024/03/10 00:42:42;;;;;;;0.30;0.30;;;10.70;99.90;;;;;;5088320;28;20224;-76
2024/03/10 00:45:09;;;;;;;0.30;0.20;;;10.70;99.90;;;;;;5087323;28;20180;-74
2024/03/10 00:47:38;;;;;;;0.40;0.20;;;10.70;99.90;;;;;;5086959;28;20200;-78
2024/03/10 00:50:08;;;;;;;0.30;0.20;;;10.60;99.90;;;;;;5088669;28;20532;-74
2024/03/10 00:52:35;;;;;;;1.17;1.08;;;10.60;99.90;;;;;;5087038;28;20220;-78
2024/03/10 00:55:01;;;;;;;0.30;0.20;;;10.60;99.90;;;;;;5088474;28;20641;-78
2024/03/10 00:57:26;;;;;;;0.30;0.20;;;10.50;99.90;;;;;;5088419;28;20633;-78
2024/03/10 00:59:52;;;;;;;1.13;1.13;;;10.50;99.90;;;;;;5088180;28;20190;-74
2024/03/10 01:02:18;;;;;;;0.30;0.20;;;10.50;99.90;;;;;;5086625;28;20712;-75
2024/03/10 01:04:44;;;;;;;0.30;0.27;;;10.60;99.90;;;;;;5088421;28;20177;-74
2024/03/10 01:07:09;;;;;;;3.90;3.17;;;10.60;99.90;;;;;;5086292;28;20435;-79
2024/03/10 01:09:35;;;;;;;0.30;0.20;;;10.50;99.90;;;;;;5086189;28;20210;-78
2024/03/10 01:12:01;;;;;;;0.87;0.87;;;10.50;99.90;;;;;;5086484;28;20245;-73
2024/03/10 01:14:27;;;;;;;0.47;0.47;;;10.40;99.90;;;;;;5087547;28;20303;-78
2024/03/10 01:16:52;;;;;;;0.30;0.20;;;10.40;99.90;;;;;;5086590;28;20444;-74
2024/03/10 01:19:18;;;;;;;2.00;1.90;;;10.40;99.90;;;;;;5088109;28;20545;-74
2024/03/10 01:21:45;;;;;;;0.30;0.20;;;10.40;99.90;;;;;;5086552;28;20173;-75
2024/03/10 01:24:11;;;;;;;0.30;0.20;;;10.50;99.90;;;;;;5087120;28;20527;-74
2024/03/10 01:26:37;;;;;;;0.30;0.20;;;10.40;99.90;;;;;;5085894;28;20186;-74
2024/03/10 01:29:04;;;;;;;0.30;0.20;;;10.40;99.90;;;;;;5086314;28;20697;-76
2024/03/10 01:31:29;;;;;;;0.30;0.20;;;10.40;99.90;;;;;;5086478;28;20426;-78
2024/03/10 01:33:55;;;;;;;0.30;0.20;;;10.40;99.90;;;;;;5086091;28;20700;-78
2024/03/10 01:36:21;;;;;;;0.80;0.80;;;10.30;99.90;;;;;;5088043;28;20218;-74
2024/03/10 01:38:46;;;;;;;0.30;0.20;;;10.30;99.90;;;;;;5085766;28;20205;-74
2024/03/10 01:41:12;;;;;;;0.30;0.20;;;10.40;99.90;;;;;;5087961;28;20254;-73
2024/03/10 01:43:40;;;;;;;0.30;0.20;;;10.40;99.90;;;;;;5085679;28;20725;-78
2024/03/10 01:46:11;;;;;;;0.30;0.20;;;10.40;99.90;;;;;;5087661;28;20164;-74
2024/03/10 01:48:39;;;;;;;0.30;0.20;;;10.40;99.90;;;;;;5087274;28;20791;-79
2024/03/10 01:51:06;;;;;;;0.95;0.95;;;10.40;99.90;;;;;;5086027;28;20176;-74
2024/03/10 01:53:32;;;;;;;1.05;1.05;;;10.40;99.90;;;;;;5085551;28;20677;-78
2024/03/10 01:55:59;;;;;;;0.30;0.20;;;10.40;99.90;;;;;;5086026;28;20622;-76
2024/03/10 01:58:27;;;;;;;0.30;0.20;;;10.40;99.90;;;;;;5086864;28;20459;-74
2024/03/10 02:00:53;;;;;;;0.30;0.30;;;10.40;99.90;;;;;;5087224;28;20160;-78
2024/03/10 02:03:20;;;;;;;0.30;0.20;;;10.30;99.90;;;;;;5086613;28;20694;-78
2024/03/10 02:05:46;;;;;;;0.30;0.20;;;10.20;99.90;;;;;;5087471;28;20420;-74
2024/03/10 02:08:14;;;;;;;2.38;2.25;;;10.20;99.90;;;;;;5086529;28;20251;-74
2024/03/10 02:10:46;;;;;;;0.30;0.20;;;10.20;99.90;;;;;;5085890;28;20693;-74
2024/03/10 02:13:13;;;;;;;0.30;0.20;;;10.20;99.90;;;;;;5086558;28;20219;-74
2024/03/10 02:15:38;;;;;;;0.30;0.20;;;10.10;99.90;;;;;;5086996;28;20228;-79
2024/03/10 02:18:05;;;;;;;0.30;0.20;;;10.10;99.90;;;;;;5086187;28;20200;-79
2024/03/10 02:20:32;;;;;;;0.30;0.20;;;10.10;99.90;;;;;;5086787;28;20176;-74
2024/03/10 02:22:59;;;;;;;0.30;0.22;;;10.10;99.90;;;;;;5085008;28;20486;-74
2024/03/10 02:25:34;;;;;;;0.30;0.20;;;10.00;99.90;;;;;;5085383;28;20741;-79
2024/03/10 02:28:09;;;;;;;0.30;0.20;;;10.00;99.90;;;;;;5084442;28;20303;-74
2024/03/10 02:30:43;;;;;;;0.43;0.43;;;10.00;99.90;;;;;;5086518;28;20187;-74
2024/03/10 02:47:17;;;;;;;0.30;0.20;;;10.00;99.90;;;;;;5062849;28;20177;-79
2024/03/10 02:49:43;;;;;;;0.40;0.20;;;10.00;99.90;;;;;;5063092;28;20212;-78
2024/03/10 02:52:09;;;;;;;0.30;0.20;;;10.00;99.90;;;;;;5073181;28;20195;-74
2024/03/10 02:54:38;;;;;;;0.30;0.20;;;10.00;99.90;;;;;;5085815;28;20176;-74
2024/03/10 02:57:04;;;;;;;0.35;0.32;;;10.00;99.90;;;;;;5084547;28;20749;-75
2024/03/10 02:59:30;;;;;;;0.30;0.20;;;10.00;99.90;;;;;;5086227;28;20192;-74
2024/03/10 03:01:56;;;;;;;0.90;0.90;;;10.00;99.90;;;;;;5085937;28;20405;-79
2024/03/10 03:04:22;;;;;;;2.00;1.90;;;10.00;99.90;;;;;;5086041;28;20211;-79
2024/03/10 03:06:47;;;;;;;0.93;0.93;;;10.10;99.90;;;;;;5085723;28;20917;-75
2024/03/10 03:09:13;;;;;;;0.30;0.20;;;10.10;99.90;;;;;;5084168;28;20990;-74
2024/03/10 03:11:40;;;;;;;0.30;0.20;;;10.10;99.90;;;;;;5085835;28;20179;-74
2024/03/10 03:14:08;;;;;;;1.10;1.10;;;10.10;99.90;;;;;;5084147;28;20347;-78
2024/03/10 03:16:34;;;;;;;0.30;0.20;;;10.10;99.90;;;;;;5084645;28;20211;-74
2024/03/10 03:19:00;;;;;;;0.30;0.20;;;10.10;99.90;;;;;;5084243;28;20224;-78
2024/03/10 03:21:25;;;;;;;0.30;0.20;;;10.10;99.90;;;;;;5086105;28;20620;-78
2024/03/10 03:23:52;;;;;;;0.30;0.30;;;10.10;99.90;;;;;;5085042;28;20228;-74
2024/03/10 03:26:19;;;;;;;0.82;0.82;;;10.10;99.90;;;;;;5085861;28;20581;-74
2024/03/10 03:28:44;;;;;;;0.30;0.20;;;10.10;99.90;;;;;;5081981;28;20299;-74
2024/03/10 03:31:10;;;;;;;5.00;4.80;;;10.10;99.90;;;;;;5085622;28;20260;-74
2024/03/10 03:33:36;;;;;;;0.30;0.30;;;10.10;99.90;;;;;;5084296;28;20231;-78
2024/03/10 03:36:02;;;;;;;0.30;0.20;;;10.10;99.90;;;;;;5084063;28;20249;-79
2024/03/10 03:38:27;;;;;;;0.30;0.20;;;10.10;99.90;;;;;;5085421;28;20250;-78
2024/03/10 03:40:53;;;;;;;0.30;0.20;;;10.10;99.90;;;;;;5084284;28;20180;-78
2024/03/10 03:43:19;;;;;;;0.30;0.20;;;10.10;99.90;;;;;;5085028;28;20238;-76
2024/03/10 03:45:44;;;;;;;0.33;0.20;;;10.10;99.90;;;;;;5085823;28;20180;-78
2024/03/10 03:48:10;;;;;;;0.30;0.30;;;10.10;99.90;;;;;;5083631;28;20201;-78
2024/03/10 03:50:36;;;;;;;0.30;0.20;;;10.10;99.90;;;;;;5085675;28;20724;-74
2024/03/10 03:53:02;;;;;;;0.30;0.20;;;10.10;99.90;;;;;;5084855;28;20200;-74
2024/03/10 03:55:28;;;;;;;0.30;0.20;;;10.20;99.90;;;;;;5083739;28;20184;-79
2024/03/10 03:57:54;;;;;;;1.50;1.30;;;10.20;99.90;;;;;;5085603;28;20706;-78
2024/03/10 04:00:20;;;;;;;0.30;0.20;;;10.10;99.90;;;;;;5083846;28;20176;-76
2024/03/10 04:02:46;;;;;;;1.27;1.27;;;10.10;99.90;;;;;;5085012;28;20216;-78
2024/03/10 04:05:15;;;;;;;0.30;0.20;;;10.10;99.90;;;;;;5085368;28;20439;-79
2024/03/10 04:07:41;;;;;;;0.30;0.20;;;10.20;99.90;;;;;;5083431;28;20204;-73
2024/03/10 04:10:09;;;;;;;0.30;0.30;;;10.20;99.90;;;;;;5085361;28;20702;-75
2024/03/10 04:12:38;;;;;;;10.43;9.57;;;10.20;99.90;;;;;;5083377;28;20366;-74
2024/03/10 04:15:05;;;;;;;0.30;0.20;;;10.20;99.90;;;;;;5084953;28;20398;-74
2024/03/10 04:17:31;;;;;;;0.57;0.50;;;10.20;99.90;;;;;;5084832;28;20196;-80
2024/03/10 04:20:00;;;;;;;0.30;0.20;;;10.20;99.90;;;;;;5085186;28;20362;-74
2024/03/10 04:22:25;;;;;;;0.30;0.20;;;10.30;99.90;;;;;;5084572;28;20230;-78
2024/03/10 04:24:51;;;;;;;0.30;0.20;;;10.20;99.90;;;;;;5085209;28;20625;-74
2024/03/10 04:27:17;;;;;;;0.30;0.20;;;10.20;99.90;;;;;;5084581;28;20228;-74
2024/03/10 04:29:42;;;;;;;0.30;0.20;;;10.20;99.90;;;;;;5085152;28;20187;-78
2024/03/10 04:32:08;;;;;;;0.30;0.20;;;10.20;99.90;;;;;;5083707;28;20187;-78
2024/03/10 04:34:34;;;;;;;10.40;9.90;;;10.10;99.90;;;;;;5085001;28;20256;-78
2024/03/10 04:37:01;;;;;;;0.30;0.20;;;10.20;99.90;;;;;;5083291;28;20173;-73
2024/03/10 04:39:26;;;;;;;0.30;0.20;;;10.10;99.90;;;;;;5083493;28;20206;-78
2024/03/10 04:41:55;;;;;;;0.30;0.30;;;10.20;99.90;;;;;;5088362;28;20439;-80
2024/03/10 04:44:21;;;;;;;0.30;0.20;;;10.20;99.90;;;;;;5087323;28;20567;-78
2024/03/10 04:46:47;;;;;;;0.30;0.20;;;10.10;99.90;;;;;;5088868;28;20349;-78
2024/03/10 04:49:13;;;;;;;0.30;0.20;;;10.10;99.90;;;;;;5088581;28;20805;-73
2024/03/10 04:51:39;;;;;;;0.50;0.50;;;10.10;99.90;;;;;;5088558;28;20217;-73
2024/03/10 04:54:05;;;;;;;0.30;0.20;;;10.00;99.90;;;;;;5088222;28;20330;-78
2024/03/10 04:56:35;;;;;;;0.30;0.20;;;10.00;99.90;;;;;;5088706;28;20176;-80
2024/03/10 04:59:01;;;;;;;16.10;3.45;;;10.00;99.90;;;;;;5086769;28;20204;-76
2024/03/10 05:01:28;;;;;;;0.30;0.20;;;10.10;99.90;;;;;;5088344;28;20461;-80
2024/03/10 05:03:53;;;;;;;0.85;0.85;;;10.00;99.90;;;;;;5088210;28;20534;-80
2024/03/10 05:06:19;;;;;;;0.30;0.20;;;10.10;99.90;;;;;;5086850;28;20233;-80
2024/03/10 05:08:46;;;;;;;0.30;0.20;;;10.10;99.90;;;;;;5086911;28;20602;-76
2024/03/10 05:11:11;;;;;;;0.30;0.20;;;10.10;99.90;;;;;;5086818;28;20176;-76
2024/03/10 05:13:38;;;;;;;0.30;0.20;;;10.10;99.90;;;;;;5087724;28;20227;-81
2024/03/10 05:16:04;;;;;;;0.30;0.20;;;10.10;99.90;;;;;;5087986;28;20417;-76
2024/03/10 05:18:31;;;;;;;1.67;1.58;;;10.20;99.90;;;;;;5086331;28;20657;-76
2024/03/10 05:20:57;;;;;;;1.00;1.00;;;10.20;99.90;;;;;;5086384;28;20214;-75
2024/03/10 05:23:24;;;;;;;0.30;0.20;;;10.20;99.90;;;;;;5085611;28;20378;-80
2024/03/10 05:25:50;;;;;;;0.30;0.30;;;10.20;99.90;;;;;;5088118;28;20582;-80
2024/03/10 05:28:17;;;;;;;0.30;0.20;;;10.20;99.90;;;;;;5087457;28;20216;-76
2024/03/10 05:30:44;;;;;;;0.30;0.20;;;10.20;99.90;;;;;;5086511;28;20604;-76
2024/03/10 05:33:10;;;;;;;0.30;0.20;;;10.20;99.90;;;;;;5085146;28;20201;-76
2024/03/10 05:35:37;;;;;;;0.30;0.20;;;10.20;99.90;;;;;;5087231;28;20562;-80
2024/03/10 05:38:03;;;;;;;0.30;0.30;;;10.20;99.90;;;;;;5087343;28;20591;-76
2024/03/10 05:40:29;;;;;;;0.63;0.63;;;10.20;99.90;;;;;;5087735;28;20168;-80
2024/03/10 05:42:55;;;;;;;0.30;0.20;;;10.10;99.90;;;;;;5085887;28;20262;-75
2024/03/10 05:45:21;;;;;;;0.40;0.40;;;10.10;99.90;;;;;;5087896;28;20226;-74
2024/03/10 05:47:48;;;;;;;0.40;0.40;;;10.20;99.90;;;;;;5087120;28;20196;-76
2024/03/10 05:50:14;;;;;;;0.30;0.30;;;10.20;99.90;;;;;;5087743;28;20165;-80
2024/03/10 05:52:40;;;;;;;0.38;0.30;;;10.10;99.90;;;;;;5086343;28;20296;-80
2024/03/10 05:55:07;;;;;;;0.30;0.20;;;10.20;99.90;;;;;;5086048;28;20629;-76
2024/03/10 05:57:33;;;;;;;3.05;2.58;;;10.20;99.90;;;;;;5087379;28;20201;-76
2024/03/10 05:59:59;;;;;;;2.88;1.77;;;10.20;99.90;;;;;;5087274;28;20407;-80
2024/03/10 06:02:25;;;;;;;0.50;0.50;;;10.20;99.90;;;;;;5085421;28;20243;-80
2024/03/10 06:04:50;;;;;;;0.30;0.20;;;10.20;99.90;;;;;;5086029;28;20439;-76
2024/03/10 06:07:16;;;;;;;0.30;0.20;;;10.20;99.90;;;;;;5086719;28;20193;-80
2024/03/10 06:09:41;;;;;;;0.30;0.20;;;10.20;99.90;;;;;;5087201;28;20649;-80
2024/03/10 06:12:08;;;;;;;0.30;0.20;;;10.20;99.90;;;;;;5086994;28;20177;-80
2024/03/10 06:14:33;;;;;;;0.30;0.20;;;10.20;99.90;;;;;;5087110;28;20299;-79
2024/03/10 06:17:00;;;;;;;0.30;0.20;;;10.20;99.90;;;;;;5087353;28;20593;-79
2024/03/10 06:27:42;;;;;;;0.30;0.20;;;10.30;99.90;;;;;;5086618;28;20246;-78
2024/03/10 06:30:10;;;;;;;0.30;0.20;;;10.30;99.90;;;;;;5085386;28;20177;-73
2024/03/10 06:32:36;;;;;;;0.30;0.20;;;10.30;99.90;;;;;;5084771;28;20475;-76
2024/03/10 06:35:02;;;;;;;0.30;0.20;;;10.30;99.90;;;;;;5085594;28;20195;-80
2024/03/10 06:37:27;;;;;;;0.30;0.20;;;10.30;99.90;;;;;;5085005;28;20503;-80
2024/03/10 06:39:53;;;;;;;0.30;0.20;;;10.20;99.90;;;;;;5086545;28;20182;-76
2024/03/10 06:42:19;;;;;;;0.30;0.20;;;10.10;99.90;;;;;;5083229;28;20223;-80
2024/03/10 06:44:45;;;;;;;0.30;0.30;;;10.20;99.90;;;;;;5083346;28;20833;-80
2024/03/10 06:47:11;;;;;;;0.30;0.20;;;10.20;99.90;;;;;;5084080;28;20177;-80
2024/03/10 06:49:37;;;;;;;1.60;1.50;;;10.20;99.90;;;;;;5086274;28;20259;-76
2024/03/10 06:52:03;;;;;;;2.43;2.10;;;10.20;99.90;;;;;;5086078;28;20184;-76
2024/03/10 06:54:28;;;;;;;2.33;2.20;;;10.20;99.90;;;;;;5085001;28;20196;-80
2024/03/10 06:56:54;;;;;;;0.30;0.20;;;10.20;99.90;;;;;;5085146;28;20869;-80
2024/03/10 06:59:22;;;;;;;0.30;0.20;;;10.20;99.90;;;;;;5083833;28;20250;-80
2024/03/10 07:01:48;;;;;;;0.30;0.20;;;10.20;99.90;;;;;;5084786;28;20183;-80
2024/03/10 07:04:14;;;;;;;0.30;0.20;;;10.20;99.90;;;;;;5084315;28;20200;-74
2024/03/10 07:06:40;;;;;;;0.40;0.20;;;10.20;99.90;;;;;;5082876;28;20425;-78
2024/03/10 07:09:09;;;;;;;0.40;0.30;;;10.20;99.90;;;;;;5084494;28;20200;-76
2024/03/10 07:11:41;;;;;;;0.30;0.20;;;10.20;99.90;;;;;;5084118;28;21054;-80
2024/03/10 07:14:08;;;;;;;0.38;0.20;;;10.30;99.90;;;;;;5084483;28;20269;-80
2024/03/10 07:16:35;;;;;;;0.30;0.20;;;10.30;99.90;;;;;;5086336;28;20184;-76
2024/03/10 07:19:01;;;;;;;0.30;0.20;;;10.40;99.90;;;;;;5084256;28;20330;-75
2024/03/10 07:21:27;;;;;;;0.30;0.20;;;10.50;99.90;;;;;;5084704;28;20283;-76
2024/03/10 07:23:53;;;;;;;0.30;0.20;;;10.60;99.90;;;;;;5083998;28;20681;-80
2024/03/10 07:26:19;;;;;;;0.30;0.20;;;10.70;99.90;;;;;;5086034;28;20246;-80
2024/03/10 07:28:45;;;;;;;0.30;0.20;;;10.80;99.90;;;;;;5085784;28;20343;-80
2024/03/10 07:31:11;;;;;;;0.30;0.20;;;10.90;99.90;;;;;;5084323;28;20186;-80
2024/03/10 07:33:37;;;;;;;0.32;0.30;;;11.00;99.90;;;;;;5085246;28;20190;-80
2024/03/10 07:36:04;;;;;;;1.38;1.38;;;11.10;99.90;;;;;;5084016;28;20252;-79
2024/03/10 07:38:30;;;;;;;0.30;0.20;;;11.10;99.90;;;;;;5083371;28;20576;-80
2024/03/10 07:40:56;;;;;;;0.30;0.20;;;11.10;99.90;;;;;;5085990;28;20234;-80
2024/03/10 07:43:23;;;;;;;0.30;0.20;;;11.30;99.90;;;;;;5085043;28;20208;-75
2024/03/10 07:45:49;;;;;;;0.30;0.20;;;11.40;99.90;;;;;;5085601;28;20425;-81
2024/03/10 07:48:16;;;;;;;0.30;0.20;;;11.50;99.90;;;;;;5083768;28;20461;-78
2024/03/10 07:50:43;;;;;;;0.60;0.60;;;11.60;99.90;;;;;;5085448;28;20409;-79
2024/03/10 07:53:09;;;;;;;0.80;0.30;;;11.70;99.90;;;;;;5084768;28;20428;-81
2024/03/10 07:55:36;;;;;;;0.73;0.73;;;11.80;99.90;;;;;;5085197;28;20448;-80
2024/03/10 07:58:05;;;;;;;0.30;0.20;;;11.90;99.90;;;;;;5084025;28;20431;-78
2024/03/10 08:00:31;;;;;;;1.70;1.60;;;12.00;99.90;;;;;;5085478;28;20425;-78
2024/03/10 08:02:57;;;;;;;1.63;1.53;;;12.10;99.90;;;;;;5083765;28;20559;-78
2024/03/10 08:05:23;;;;;;;0.30;0.20;;;12.30;99.90;;;;;;5084653;28;20517;-74
2024/03/10 08:07:49;;;;;;;0.30;0.20;;;12.50;99.90;;;;;;5083049;28;20257;-77
2024/03/10 08:10:16;;;;;;;0.30;0.20;;;12.60;99.90;;;;;;5082349;28;20181;-74
2024/03/10 08:12:46;;;;;;;0.33;0.30;;;12.70;99.90;;;;;;5081875;28;20452;-74
2024/03/10 08:15:13;;;;;;;1.53;1.50;;;12.80;99.90;;;;;;5085075;28;20464;-78
2024/03/10 08:17:40;;;;;;;0.30;0.20;;;13.00;99.90;;;;;;5086045;28;20429;-78
2024/03/10 08:20:06;;;;;;;0.30;0.30;;;13.30;99.90;;;;;;5088057;28;20432;-77
2024/03/10 08:22:34;;;;;;;0.30;0.20;;;13.40;99.90;;;;;;5088522;28;20463;-74
2024/03/10 08:24:59;;;;;;;1.03;1.03;;;13.50;99.90;;;;;;5087686;28;20977;-74
2024/03/10 08:27:25;;;;;;;0.50;0.50;;;13.60;99.90;;;;;;5088999;28;20397;-75
2024/03/10 08:29:51;;;;;;;0.30;0.30;;;13.80;99.90;;;;;;5088836;28;20199;-78
2024/03/10 08:32:16;;;;;;;0.30;0.20;;;14.20;99.90;;;;;;5088520;28;20389;-78
2024/03/10 08:34:42;;;;;;;0.50;0.50;;;14.60;99.90;;;;;;5089244;28;20217;-81
2024/03/10 08:37:08;;;;;;;0.77;0.70;;;14.70;99.90;;;;;;5087415;28;20167;-75
2024/03/10 08:39:34;;;;;;;12.53;1.13;;;14.70;99.90;;;;;;5087606;28;20413;-74
2024/03/10 08:42:00;;;;;;;0.40;0.20;;;15.00;99.90;;;;;;5087109;28;20214;-78
2024/03/10 08:44:25;;;;;;;0.30;0.20;;;15.30;99.90;;;;;;5088823;28;20710;-79
2024/03/10 08:46:52;;;;;;;0.30;0.27;;;15.70;99.90;;;;;;5087158;28;20180;-77
2024/03/10 08:49:17;;;;;;;0.40;0.30;;;15.90;99.90;;;;;;5087161;28;20204;-75
2024/03/10 08:51:43;;;;;;;0.60;0.60;;;16.00;99.90;;;;;;5087154;28;20440;-79
2024/03/10 08:54:09;;;;;;;0.60;0.60;;;16.30;99.90;;;;;;5087731;28;20193;-80
2024/03/10 08:56:40;;;;;;;1.13;1.13;;;17.00;99.90;;;;;;5087453;28;20174;-75
2024/03/10 08:59:09;;;;;;;0.30;0.20;;;17.40;99.90;;;;;;5086029;28;20457;-79
2024/03/10 09:01:34;;;;;;;0.30;0.20;;;17.70;99.90;;;;;;5087097;28;20485;-79
2024/03/10 09:04:02;;;;;;;0.87;0.83;;;17.90;99.90;;;;;;5086786;28;20498;-75
2024/03/10 09:06:29;;;;;;;1.87;1.77;;;17.90;99.90;;;;;;5086965;28;20182;-79
2024/03/10 09:08:55;;;;;;;2.77;1.80;;;17.90;99.90;;;;;;5086728;28;20451;-79
2024/03/10 09:11:23;;;;;;;1.23;1.23;;;18.20;99.90;;;;;;5088248;28;20490;-79
2024/03/10 09:13:50;;;;;;;0.33;0.30;;;18.60;99.90;;;;;;5087370;28;20228;-80
2024/03/10 09:16:15;;;;;;;0.83;0.77;;;18.90;99.90;;;;;;5088106;28;20443;-79
2024/03/10 09:18:41;;;;;;;0.30;0.20;;;19.10;99.90;;;;;;5086386;28;20459;-79
2024/03/10 09:21:07;;;;;;;0.40;0.20;;;19.30;99.90;;;;;;5087961;28;20689;-75
2024/03/10 09:23:33;;;;;;;1.33;1.30;;;19.40;99.90;;;;;;5087651;28;20227;-79
2024/03/10 09:26:01;;;;;;;0.30;0.20;;;19.40;99.90;;;;;;5087250;28;20177;-79
2024/03/10 09:28:27;;;;;;;7.47;4.97;;;19.30;99.90;;;;;;5087580;28;20525;-74
2024/03/10 09:30:55;;;;;;;1.03;0.93;;;19.30;99.90;;;;;;5086524;28;20510;-79
2024/03/10 09:33:22;;;;;;;0.40;0.30;;;19.20;99.90;;;;;;5087246;28;20940;-74
2024/03/10 09:35:49;;;;;;;0.30;0.20;;;18.90;99.90;;;;;;5086242;28;20503;-79
2024/03/10 09:38:15;;;;;;;0.30;0.20;;;18.70;99.90;;;;;;5086869;28;20421;-74
2024/03/10 09:40:41;;;;;;;0.30;0.20;;;18.60;99.90;;;;;;5086500;28;20432;-78
2024/03/10 09:43:11;;;;;;;6.27;0.93;;;18.70;99.90;;;;;;5087150;28;20694;-79
2024/03/10 09:45:43;;;;;;;0.30;0.20;;;18.70;99.90;;;;;;5086380;28;20183;-75
2024/03/10 09:48:09;;;;;;;0.30;0.20;;;18.70;99.90;;;;;;5087079;28;20424;-76
2024/03/10 09:50:48;;;;;;;0.30;0.20;;;18.60;99.90;;;;;;5086494;28;20851;-75
2024/03/10 09:53:17;;;;;;;1.20;1.20;;;18.50;99.90;;;;;;5085812;28;21004;-75
2024/03/10 09:55:48;;;;;;;0.47;0.40;;;18.40;99.90;;;;;;5087189;28;20979;-74
2024/03/10 09:58:17;;;;;;;0.30;0.20;;;18.40;99.90;;;;;;5087529;28;20847;-75
2024/03/10 10:00:45;;;;;;;0.30;0.30;;;18.40;99.90;;;;;;5087281;28;20441;-75
2024/03/10 10:03:12;;;;;;;1.83;1.80;;;18.50;99.90;;;;;;5085595;28;20475;-79
2024/03/10 10:05:53;;;;;;;1.33;1.30;;;18.50;99.90;;;;;;5087324;28;20416;-79
2024/03/10 10:08:19;;;;;;;0.30;0.30;;;18.50;99.90;;;;;;5086691;28;20454;-75
2024/03/10 10:10:52;;;;;;;0.30;0.30;;;18.40;99.90;;;;;;5085344;28;20466;-79
2024/03/10 10:13:24;;;;;;;0.30;0.20;;;18.30;99.90;;;;;;5085574;28;20439;-79
2024/03/10 10:15:52;;;;;;;0.30;0.20;;;18.10;99.90;;;;;;5086129;28;20425;-79
2024/03/10 10:18:18;;;;;;;0.30;0.20;;;17.80;99.90;;;;;;5084441;28;20435;-75
2024/03/10 10:20:51;;;;;;;0.30;0.20;;;17.60;99.90;;;;;;5084834;28;20496;-79
2024/03/10 10:23:23;;;;;;;0.30;0.20;;;17.50;99.90;;;;;;5085764;28;20485;-75
2024/03/10 10:25:53;;;;;;;0.30;0.20;;;17.50;99.90;;;;;;5084897;28;20435;-79
2024/03/10 10:28:19;;;;;;;0.30;0.20;;;17.40;99.90;;;;;;5085357;28;20514;-78
2024/03/10 10:30:45;;;;;;;0.30;0.20;;;17.30;99.90;;;;;;5087078;28;20632;-79
2024/03/10 10:33:15;;;;;;;2.13;0.57;;;17.30;99.90;;;;;;5085077;28;21025;-75
2024/03/10 10:35:47;;;;;;;0.30;0.20;;;17.20;99.90;;;;;;5086724;28;20424;-79
2024/03/10 10:38:13;;;;;;;0.30;0.20;;;17.20;99.90;;;;;;5085044;28;20416;-75
2024/03/10 10:40:44;;;;;;;1.17;0.73;;;17.20;99.90;;;;;;5086436;28;20510;-75
2024/03/10 10:43:12;;;;;;;0.30;0.20;;;17.10;99.90;;;;;;5085824;28;20230;-79
2024/03/10 10:45:38;;;;;;;0.30;0.20;;;17.00;99.90;;;;;;5086151;28;20422;-75
2024/03/10 10:48:08;;;;;;;0.40;0.20;;;17.00;99.90;;;;;;5083493;28;20428;-75
2024/03/10 10:50:34;;;;;;;0.40;0.40;;;17.00;99.90;;;;;;5086756;28;20946;-80
2024/03/10 10:53:05;;;;;;;0.40;0.30;;;17.00;99.90;;;;;;5085987;28;20429;-79
2024/03/10 10:55:32;;;;;;;0.30;0.20;;;17.00;99.90;;;;;;5086396;28;20796;-74
2024/03/10 10:57:59;;;;;;;0.30;0.20;;;16.90;99.90;;;;;;5084596;28;20432;-79
2024/03/10 11:00:28;;;;;;;0.30;0.20;;;17.00;99.90;;;;;;5086286;28;20798;-75
2024/03/10 11:03:17;;;;;;;0.30;0.20;;;16.90;99.90;;;;;;5085421;28;20831;-75
2024/03/10 11:06:08;;;;;;;0.90;0.90;;;16.90;99.90;;;;;;5084416;28;20509;-79
2024/03/10 11:08:35;;;;;;;0.30;0.20;;;16.80;99.90;;;;;;5082930;28;20433;-79
2024/03/10 11:11:02;;;;;;;0.30;0.20;;;16.80;99.90;;;;;;5082990;28;20422;-79
2024/03/10 11:13:28;;;;;;;0.30;0.30;;;16.80;99.90;;;;;;5082206;28;20783;-74
2024/03/10 11:16:12;;;;;;;1.70;1.60;;;16.80;99.90;;;;;;5082684;28;20434;-78
2024/03/10 11:18:39;;;;;;;5.03;0.97;;;16.90;99.90;;;;;;5084423;28;20935;-74
2024/03/10 11:21:12;;;;;;;0.40;0.30;;;17.00;99.90;;;;;;5085891;28;20421;-75
2024/03/10 11:23:47;;;;;;;0.67;0.67;;;17.00;99.90;;;;;;5085463;28;21051;-77
2024/03/10 11:26:15;;;;;;;0.40;0.40;;;17.10;99.90;;;;;;5085875;28;20425;-79
2024/03/10 11:29:00;;;;;;;1.23;1.23;;;17.20;99.90;;;;;;5085628;28;20933;-74
2024/03/10 11:31:36;;;;;;;0.50;0.50;;;17.30;99.90;;;;;;5085959;28;20430;-79
2024/03/10 11:34:03;;;;;;;2.17;1.00;;;17.40;99.90;;;;;;5085172;28;20423;-79
2024/03/10 11:36:47;;;;;;;1.27;1.07;;;17.50;99.90;;;;;;5085814;28;20508;-75
2024/03/10 11:39:22;;;;;;;0.30;0.20;;;17.70;99.90;;;;;;5084030;28;20478;-79
2024/03/10 11:41:51;;;;;;;0.30;0.20;;;17.80;99.90;;;;;;5082841;28;20438;-74
2024/03/10 11:44:17;;;;;;;0.30;0.20;;;18.00;99.90;;;;;;5085760;28;20693;-74
2024/03/10 11:46:43;;;;;;;0.30;0.20;;;18.20;99.90;;;;;;5084084;28;20820;-78
2024/03/10 11:49:11;;;;;;;0.30;0.20;;;18.30;99.90;;;;;;5084818;28;20526;-75
2024/03/10 11:51:38;;;;;;;0.30;0.20;;;18.40;99.90;;;;;;5085096;28;20826;-75
2024/03/10 11:54:07;;;;;;;0.67;0.67;;;18.40;99.90;;;;;;5084448;28;20471;-78
2024/03/10 11:56:33;;;;;;;0.40;0.30;;;18.30;99.90;;;;;;5085511;28;20958;-79
2024/03/10 11:58:59;;;;;;;0.30;0.30;;;18.20;99.90;;;;;;5085130;28;20789;-75
2024/03/10 12:01:30;;;;;;;0.30;0.20;;;18.20;99.90;;;;;;5085970;28;20485;-75
2024/03/10 12:03:59;;;;;;;7.03;2.53;;;18.20;99.90;;;;;;5083856;28;20558;-74
2024/03/10 12:06:24;;;;;;;0.30;0.30;;;18.30;99.90;;;;;;5084037;28;20527;-74
2024/03/10 12:08:50;;;;;;;0.30;0.20;;;18.30;99.90;;;;;;5083810;28;20627;-79
2024/03/10 12:11:17;;;;;;;0.30;0.20;;;18.30;99.90;;;;;;5085524;28;20416;-74
2024/03/10 12:13:44;;;;;;;0.80;0.80;;;18.30;99.90;;;;;;5083501;28;20655;-78
2024/03/10 12:16:11;;;;;;;0.30;0.20;;;18.30;99.90;;;;;;5084798;28;20452;-78
2024/03/10 12:18:41;;;;;;;0.30;0.20;;;18.20;99.90;;;;;;5083761;28;20444;-74
2024/03/10 12:21:14;;;;;;;0.30;0.20;;;18.20;99.90;;;;;;5085266;28;20476;-79
2024/03/10 12:23:44;;;;;;;2.40;1.60;;;18.20;99.90;;;;;;5084746;28;20552;-74
2024/03/10 12:26:11;;;;;;;0.30;0.20;;;18.10;99.90;;;;;;5085265;28;20928;-78
2024/03/10 12:28:38;;;;;;;0.30;0.20;;;18.10;99.90;;;;;;5084807;28;20562;-79
2024/03/10 12:31:12;;;;;;;1.60;1.50;;;18.10;99.90;;;;;;5083478;28;20427;-80
2024/03/10 12:33:39;;;;;;;0.30;0.20;;;18.20;99.90;;;;;;5084944;28;20435;-75
2024/03/10 12:36:06;;;;;;;0.30;0.20;;;18.30;99.90;;;;;;5083201;28;20481;-80
2024/03/10 12:38:33;;;;;;;1.17;1.17;;;18.40;99.90;;;;;;5084820;28;20792;-75
2024/03/10 12:40:58;;;;;;;0.47;0.30;;;18.50;99.90;;;;;;5083908;28;20941;-76
2024/03/10 12:43:24;;;;;;;0.60;0.60;;;18.40;99.90;;;;;;5084341;28;20597;-76
2024/03/10 12:45:51;;;;;;;0.30;0.20;;;18.40;99.90;;;;;;5083943;28;20169;-79
2024/03/10 12:48:17;;;;;;;0.30;0.20;;;18.50;99.90;;;;;;5084831;28;20451;-80
2024/03/10 12:50:43;;;;;;;0.30;0.20;;;18.50;99.90;;;;;;5084902;28;20503;-75
2024/03/10 12:53:08;;;;;;;0.30;0.30;;;18.40;99.90;;;;;;5084203;28;20219;-76
2024/03/10 12:55:34;;;;;;;0.40;0.40;;;18.40;99.90;;;;;;5083541;28;20184;-76
2024/03/10 12:58:00;;;;;;;0.30;0.20;;;18.40;99.90;;;;;;5084279;28;20602;-76
2024/03/10 13:00:30;;;;;;;0.60;0.60;;;18.50;99.90;;;;;;5083478;28;20652;-76
2024/03/10 13:03:00;;;;;;;0.90;0.47;;;18.50;99.90;;;;;;5086564;28;20486;-75
2024/03/10 13:05:27;;;;;;;0.40;0.20;;;18.40;99.90;;;;;;5088612;28;20422;-80
2024/03/10 13:07:53;;;;;;;0.30;0.20;;;18.30;99.90;;;;;;5088243;28;20937;-77